Time;durP1;ratioP1;P1;durP2;ratioP2;P2;SDS_P1;SDS_P2;PMS_P1;PMS_P2;Temp;Humidity;BMP_temperature;BMP_pressure;BME280_temperature;BME280_humidity;BME280_pressure;Samples;Min_cycle;Max_cycle;Signal;HPM_P1;HPM_P2
2023/03/20 00:04:37;;;;;;;;;;;20.40;51.60;;;;;;4922515;55;20064;-34
2023/03/20 00:09:38;;;;;;;;;;;20.40;51.60;;;;;;4773256;55;20101;-33
2023/03/20 00:14:39;;;;;;;;;;;20.40;51.60;;;;;;4752033;58;20159;-34
2023/03/20 00:19:40;;;;;;;;;;;20.40;51.60;;;;;;4803482;55;20052;-35
2023/03/20 00:24:40;;;;;;;;;;;20.40;51.60;;;;;;4796187;55;20346;-33
2023/03/20 00:29:41;;;;;;;;;;;20.40;51.70;;;;;;5104172;55;20060;-32
2023/03/20 00:34:42;;;;;;;;;;;20.40;52.30;;;;;;4799925;55;20306;-32
2023/03/20 00:39:42;;;;;;;;;;;20.40;51.70;;;;;;4879766;55;20064;-33
2023/03/20 00:44:46;;;;;;;;;;;20.40;51.70;;;;;;5076840;55;20108;-32
2023/03/20 00:49:48;;;;;;;;;;;20.40;51.70;;;;;;4889378;55;20068;-34
2023/03/20 00:54:49;;;;;;;;;;;20.40;51.80;;;;;;4819939;55;20283;-34
2023/03/20 01:00:03;;;;;;;;;;;20.40;51.70;;;;;;4770497;55;20112;-34
2023/03/20 01:05:04;;;;;;;;;;;20.40;51.60;;;;;;4818116;55;20290;-35
2023/03/20 01:10:05;;;;;;;;;;;20.40;51.70;;;;;;4753979;55;20060;-35
2023/03/20 01:15:21;;;;;;;;;;;20.40;51.60;;;;;;5052021;55;20060;-36
2023/03/20 01:20:24;;;;;;;;;;;20.40;51.70;;;;;;4783623;55;20092;-34
2023/03/20 01:25:25;;;;;;;;;;;20.40;51.70;;;;;;4751744;58;20359;-35
2023/03/20 01:30:27;;;;;;;;;;;20.40;51.70;;;;;;5018037;55;20072;-34
2023/03/20 01:35:28;;;;;;;;;;;20.40;51.60;;;;;;4768740;55;20128;-35
2023/03/20 01:40:33;;;;;;;;;;;20.40;51.60;;;;;;4855627;55;20179;-35
2023/03/20 01:45:34;;;;;;;;;;;20.40;51.70;;;;;;4859427;55;20121;-35
2023/03/20 01:50:35;;;;;;;;;;;20.40;51.60;;;;;;5016519;55;20290;-34
2023/03/20 01:55:37;;;;;;;;;;;20.40;51.70;;;;;;4775701;55;20065;-35
2023/03/20 02:00:38;;;;;;;;;;;20.40;51.70;;;;;;4751725;58;20068;-34
2023/03/20 02:05:39;;;;;;;;;;;20.40;51.60;;;;;;4987705;55;20327;-35
2023/03/20 02:10:40;;;;;;;;;;;20.40;51.70;;;;;;4868171;55;20105;-35
2023/03/20 02:15:57;;;;;;;;;;;20.40;51.70;;;;;;4867167;55;20060;-35
2023/03/20 02:24:05;;;;;;;;;;;20.40;51.70;;;;;;4846628;55;20117;-34
2023/03/20 02:29:27;;;;;;;;;;;20.40;51.70;;;;;;4794119;55;20068;-36
2023/03/20 02:38:00;;;;;;;;;;;20.40;51.70;;;;;;4751842;58;20283;-35
2023/03/20 02:43:51;;;;;;;;;;;20.40;51.70;;;;;;4882876;55;20335;-36
2023/03/20 02:48:54;;;;;;;;;;;20.40;51.70;;;;;;4809235;55;20077;-35
2023/03/20 02:57:26;;;;;;;;;;;20.40;51.60;;;;;;4777983;55;20323;-34
2023/03/20 03:03:16;;;;;;;;;;;20.40;51.60;;;;;;5162567;55;20116;-34
2023/03/20 03:08:19;;;;;;;;;;;20.40;51.70;;;;;;4771423;55;20109;-33
2023/03/20 03:13:22;;;;;;;;;;;20.40;51.60;;;;;;4853612;55;20330;-34
2023/03/20 03:18:25;;;;;;;;;;;20.40;51.60;;;;;;4912166;55;20117;-34
2023/03/20 03:23:30;;;;;;;;;;;20.40;51.60;;;;;;4797609;55;20307;-33
2023/03/20 03:28:37;;;;;;;;;;;20.40;51.60;;;;;;4914520;55;20364;-34
2023/03/20 03:33:40;;;;;;;;;;;20.40;51.60;;;;;;4752013;55;20390;-34
2023/03/20 03:38:47;;;;;;;;;;;20.40;51.60;;;;;;4794487;55;20298;-34
2023/03/20 03:44:05;;;;;;;;;;;20.40;51.60;;;;;;4887748;55;20120;-34
2023/03/20 03:49:07;;;;;;;;;;;20.40;51.60;;;;;;4750814;58;20124;-34
2023/03/20 03:54:19;;;;;;;;;;;20.30;51.50;;;;;;4767067;55;20067;-34
2023/03/20 03:59:23;;;;;;;;;;;20.30;51.60;;;;;;4760988;55;20157;-33
2023/03/20 04:04:25;;;;;;;;;;;20.40;51.70;;;;;;4812203;55;20112;-34
2023/03/20 04:09:26;;;;;;;;;;;20.40;51.70;;;;;;4863123;55;20366;-42
2023/03/20 04:14:26;;;;;;;;;;;20.30;51.60;;;;;;4788635;55;20302;-33
2023/03/20 04:19:27;;;;;;;;;;;20.30;51.60;;;;;;4878546;55;20077;-34
2023/03/20 04:24:27;;;;;;;;;;;20.30;51.60;;;;;;4911820;55;20299;-34
2023/03/20 04:29:28;;;;;;;;;;;20.30;51.70;;;;;;4787661;55;20068;-34
2023/03/20 04:34:29;;;;;;;;;;;20.30;51.80;;;;;;4751693;58;20065;-33
2023/03/20 04:39:29;;;;;;;;;;;20.30;51.80;;;;;;4751749;58;20310;-34
2023/03/20 04:44:30;;;;;;;;;;;20.30;51.80;;;;;;4798075;55;20068;-34
2023/03/20 04:49:31;;;;;;;;;;;20.40;51.90;;;;;;4751752;58;20064;-34
2023/03/20 04:54:32;;;;;;;;;;;20.30;51.90;;;;;;4783163;55;20303;-34
2023/03/20 04:59:32;;;;;;;;;;;20.30;51.90;;;;;;4793132;55;20067;-35
2023/03/20 05:04:33;;;;;;;;;;;20.30;51.90;;;;;;4825287;55;20350;-33
2023/03/20 05:09:34;;;;;;;;;;;20.30;51.90;;;;;;4815875;55;20303;-34
2023/03/20 05:14:35;;;;;;;;;;;20.30;51.90;;;;;;4752114;55;20291;-33
2023/03/20 05:19:35;;;;;;;;;;;20.30;51.90;;;;;;4857522;55;20068;-33
2023/03/20 05:24:36;;;;;;;;;;;20.30;51.90;;;;;;4850296;55;20119;-33
2023/03/20 05:29:37;;;;;;;;;;;20.30;51.90;;;;;;4904391;55;20342;-34
2023/03/20 05:34:37;;;;;;;;;;;20.30;52.00;;;;;;4873859;55;20060;-35
2023/03/20 05:39:38;;;;;;;;;;;20.30;51.90;;;;;;4751958;56;20061;-34
2023/03/20 05:44:39;;;;;;;;;;;20.30;52.00;;;;;;4812613;55;20056;-35
2023/03/20 05:49:40;;;;;;;;;;;20.30;52.00;;;;;;4751923;58;20076;-34
2023/03/20 05:54:41;;;;;;;;;;;20.30;52.00;;;;;;4750972;58;20056;-33
2023/03/20 05:59:42;;;;;;;;;;;20.30;52.00;;;;;;4783572;55;20068;-36
2023/03/20 06:04:43;;;;;;;;;;;20.30;51.90;;;;;;4976816;55;20105;-31
2023/03/20 06:09:43;;;;;;;;;;;20.30;51.90;;;;;;4970293;55;20065;-33
2023/03/20 06:14:44;;;;;;;;;;;20.30;52.00;;;;;;4876788;55;20052;-33
2023/03/20 06:19:44;;;;;;;;;;;20.30;51.90;;;;;;4837350;55;20060;-35
2023/03/20 06:24:45;;;;;;;;;;;20.30;52.00;;;;;;4923815;55;20299;-34
2023/03/20 06:29:46;;;;;;;;;;;20.30;51.90;;;;;;4906260;55;20069;-36
2023/03/20 06:34:47;;;;;;;;;;;20.30;51.90;;;;;;4786381;55;20068;-35
2023/03/20 06:39:48;;;;;;;;;;;20.30;51.90;;;;;;4823614;55;20283;-34
2023/03/20 06:44:49;;;;;;;;;;;20.30;51.90;;;;;;4949855;55;20116;-34
2023/03/20 06:49:50;;;;;;;;;;;20.30;51.90;;;;;;4977795;55;20060;-35
2023/03/20 06:54:51;;;;;;;;;;;20.30;51.90;;;;;;4881502;55;20080;-34
2023/03/20 06:59:52;;;;;;;;;;;20.30;51.90;;;;;;4947566;55;20068;-34
2023/03/20 07:04:52;;;;;;;;;;;20.30;51.90;;;;;;4812183;55;20113;-34
2023/03/20 07:09:53;;;;;;;;;;;20.30;51.80;;;;;;4752373;55;20103;-33
2023/03/20 07:14:54;;;;;;;;;;;20.30;51.80;;;;;;4762541;55;20323;-35
2023/03/20 07:19:55;;;;;;;;;;;20.30;51.80;;;;;;4874875;55;20295;-34
2023/03/20 07:24:56;;;;;;;;;;;20.30;51.80;;;;;;4873322;55;20061;-33
2023/03/20 07:29:57;;;;;;;;;;;20.30;51.80;;;;;;4751920;58;20287;-35
2023/03/20 07:34:58;;;;;;;;;;;20.30;51.70;;;;;;4870433;55;20091;-35
2023/03/20 07:39:58;;;;;;;;;;;20.30;51.70;;;;;;4969749;55;20081;-33
2023/03/20 07:44:59;;;;;;;;;;;20.40;51.80;;;;;;4921139;55;20294;-34
2023/03/20 07:50:00;;;;;;;;;;;20.30;51.70;;;;;;4962987;55;20059;-34
2023/03/20 07:55:00;;;;;;;;;;;20.40;51.80;;;;;;4892823;55;20214;-34
2023/03/20 08:00:01;;;;;;;;;;;20.40;51.70;;;;;;5026376;55;20113;-29
2023/03/20 08:05:02;;;;;;;;;;;20.40;51.80;;;;;;4777868;55;20354;-31
2023/03/20 08:10:03;;;;;;;;;;;20.40;51.70;;;;;;4751697;58;20116;-31
2023/03/20 08:15:04;;;;;;;;;;;20.40;51.60;;;;;;5138521;55;20064;-32
2023/03/20 08:20:06;;;;;;;;;;;20.50;51.70;;;;;;4793786;55;20362;-29
2023/03/20 08:25:07;;;;;;;;;;;20.50;51.60;;;;;;4853463;55;20214;-29
2023/03/20 08:30:08;;;;;;;;;;;20.50;51.60;;;;;;4790726;55;20295;-31
2023/03/20 08:35:10;;;;;;;;;;;20.50;51.30;;;;;;4933475;55;20084;-30
2023/03/20 08:40:11;;;;;;;;;;;20.50;51.20;;;;;;4880197;55;20303;-31
2023/03/20 08:45:11;;;;;;;;;;;20.50;51.20;;;;;;4783035;55;20060;-33
2023/03/20 08:50:12;;;;;;;;;;;20.60;51.20;;;;;;4831032;55;20174;-29
2023/03/20 08:55:13;;;;;;;;;;;20.60;51.10;;;;;;4780377;55;20053;-31
2023/03/20 09:00:15;;;;;;;;;;;20.60;51.10;;;;;;4892377;55;20085;-31
2023/03/20 09:05:15;;;;;;;;;;;20.60;51.00;;;;;;4826480;55;20064;-31
2023/03/20 09:10:16;;;;;;;;;;;20.60;50.80;;;;;;4751871;55;20124;-31
2023/03/20 09:15:17;;;;;;;;;;;20.60;50.50;;;;;;4855211;55;20144;-32
2023/03/20 09:20:17;;;;;;;;;;;20.60;50.50;;;;;;4751067;55;20070;-33
2023/03/20 09:25:18;;;;;;;;;;;20.60;50.30;;;;;;4948438;55;20056;-31
2023/03/20 09:30:19;;;;;;;;;;;20.60;50.60;;;;;;4813073;55;20119;-31
2023/03/20 09:35:20;;;;;;;;;;;20.60;50.10;;;;;;4751659;58;20282;-32
2023/03/20 09:40:27;;;;;;;;;;;20.60;50.20;;;;;;4751832;58;20111;-32
2023/03/20 09:45:38;;;;;;;;;;;20.70;50.30;;;;;;4929352;55;20124;-29
2023/03/20 09:50:47;;;;;;;;;;;20.70;50.40;;;;;;4962679;55;20060;-32
2023/03/20 09:55:49;;;;;;;;;;;20.70;50.30;;;;;;4853585;55;20348;-32
2023/03/20 10:00:50;;;;;;;;;;;20.70;50.40;;;;;;4948534;55;20068;-31
2023/03/20 10:05:55;;;;;;;;;;;20.70;50.40;;;;;;4975843;55;20065;-30
2023/03/20 10:11:00;;;;;;;;;;;20.70;50.40;;;;;;4858097;55;20071;-32
2023/03/20 10:18:38;;;;;;;;;;;20.80;51.00;;;;;;4820057;55;20124;-32
2023/03/20 10:23:53;;;;;;;;;;;20.80;50.50;;;;;;4868669;55;20283;-30
2023/03/20 10:29:44;;;;;;;;;;;20.80;50.60;;;;;;4874685;55;20077;-31
2023/03/20 10:35:03;;;;;;;;;;;20.80;50.60;;;;;;4841650;55;20326;-34
2023/03/20 10:40:27;;;;;;;;;;;20.80;50.60;;;;;;4841783;55;20064;-31
2023/03/20 10:45:38;;;;;;;;;;;20.80;50.30;;;;;;4949620;55;20291;-32
2023/03/20 10:50:44;;;;;;;;;;;20.80;50.40;;;;;;4837115;55;20112;-31
2023/03/20 10:55:45;;;;;;;;;;;20.90;50.50;;;;;;4752633;55;20124;-31
2023/03/20 11:00:46;;;;;;;;;;;20.90;50.60;;;;;;4861371;55;20112;-31
2023/03/20 11:05:48;;;;;;;;;;;20.90;50.50;;;;;;4782064;55;20057;-32
2023/03/20 11:10:57;;;;;;;;;;;20.90;51.30;;;;;;4852435;55;20324;-32
2023/03/20 11:16:07;;;;;;;;;;;20.90;51.60;;;;;;4803568;55;20093;-32
2023/03/20 11:21:13;;;;;;;;;;;21.00;52.00;;;;;;4751214;58;20076;-30
2023/03/20 11:26:16;;;;;;;;;;;21.00;52.20;;;;;;4777452;55;20117;-32
2023/03/20 11:31:18;;;;;;;;;;;21.00;52.50;;;;;;4917269;55;20112;-31
2023/03/20 11:36:36;;;;;;;;;;;21.10;52.70;;;;;;4802102;55;20108;-30
2023/03/20 11:41:41;;;;;;;;;;;21.10;53.00;;;;;;4830826;55;20338;-31
2023/03/20 11:46:41;;;;;;;;;;;21.10;53.10;;;;;;4814364;55;20080;-33
2023/03/20 11:51:42;;;;;;;;;;;21.10;52.90;;;;;;4830788;55;20290;-31
2023/03/20 11:56:59;;;;;;;;;;;21.10;53.20;;;;;;4877372;54;20124;-30
2023/03/20 12:02:04;;;;;;;;;;;21.20;53.40;;;;;;4778212;55;20303;-31
2023/03/20 12:07:12;;;;;;;;;;;21.20;53.60;;;;;;4812119;55;20136;-31
2023/03/20 12:12:26;;;;;;;;;;;21.20;53.20;;;;;;4784518;55;20347;-36
2023/03/20 12:24:16;;;;;;;;;;;21.20;52.80;;;;;;4786058;55;20072;-32
2023/03/20 12:29:25;;;;;;;;;;;21.20;52.50;;;;;;4764503;55;20351;-32
2023/03/20 12:34:31;;;;;;;;;;;21.20;52.00;;;;;;4774731;55;20291;-32
2023/03/20 12:39:34;;;;;;;;;;;21.20;51.90;;;;;;4829265;55;20339;-34
2023/03/20 12:44:40;;;;;;;;;;;21.10;51.80;;;;;;4786843;55;20104;-33
2023/03/20 12:50:06;;;;;;;;;;;21.20;52.20;;;;;;4881025;55;20445;-32
2023/03/20 12:55:34;;;;;;;;;;;21.20;52.30;;;;;;4767714;55;20117;-33
2023/03/20 13:00:38;;;;;;;;;;;21.20;52.50;;;;;;4749227;58;20069;-32
2023/03/20 13:05:41;;;;;;;;;;;21.20;53.00;;;;;;4772658;55;20064;-31
2023/03/20 13:10:51;;;;;;;;;;;21.20;53.50;;;;;;4942837;55;20073;-31
2023/03/20 13:18:29;;;;;;;;;;;21.20;53.80;;;;;;4815474;55;20135;-29
2023/03/20 13:23:36;;;;;;;;;;;21.20;54.10;;;;;;4872195;55;20339;-30
2023/03/20 13:28:55;;;;;;;;;;;21.30;54.90;;;;;;4868553;55;20068;-29
2023/03/20 13:34:18;;;;;;;;;;;21.30;55.00;;;;;;4792450;55;20108;-32
2023/03/20 13:39:21;;;;;;;;;;;21.30;55.40;;;;;;4772564;55;20061;-31
2023/03/20 13:44:27;;;;;;;;;;;21.30;55.40;;;;;;4907908;55;20068;-31
2023/03/20 13:49:38;;;;;;;;;;;21.30;55.60;;;;;;4776271;55;20072;-32
2023/03/20 13:54:45;;;;;;;;;;;21.40;55.80;;;;;;4829493;55;20123;-32
2023/03/20 14:02:53;;;;;;;;;;;21.40;56.10;;;;;;4863074;55;20172;-31
2023/03/20 14:07:55;;;;;;;;;;;21.40;56.00;;;;;;4843412;55;20196;-31
2023/03/20 14:13:05;;;;;;;;;;;21.40;56.30;;;;;;4751351;58;20126;-32
2023/03/20 14:18:11;;;;;;;;;;;21.40;56.50;;;;;;5060087;55;20096;-32
2023/03/20 14:23:16;;;;;;;;;;;21.40;56.40;;;;;;4880552;55;20068;-31
2023/03/20 14:28:24;;;;;;;;;;;21.50;56.70;;;;;;4902149;55;20060;-31
2023/03/20 14:33:26;;;;;;;;;;;21.50;57.00;;;;;;4767913;55;20295;-31
2023/03/20 14:38:45;;;;;;;;;;;21.50;56.90;;;;;;4949494;55;20346;-31
2023/03/20 14:44:04;;;;;;;;;;;21.50;57.00;;;;;;4904845;55;20065;-31
2023/03/20 14:52:36;;;;;;;;;;;21.50;57.30;;;;;;4824737;55;20068;-35
2023/03/20 14:57:37;;;;;;;;;;;21.50;56.90;;;;;;4771459;55;20065;-33
2023/03/20 15:02:37;;;;;;;;;;;21.40;56.60;;;;;;4902898;55;20117;-34
2023/03/20 15:07:38;;;;;;;;;;;21.40;56.50;;;;;;4751162;58;20061;-35
2023/03/20 15:12:39;;;;;;;;;;;21.40;56.50;;;;;;4762418;55;20525;-35
2023/03/20 15:17:46;;;;;;;;;;;21.40;56.50;;;;;;4914240;55;20355;-38
2023/03/20 15:22:57;;;;;;;;;;;21.30;56.40;;;;;;4750523;58;20331;-35
2023/03/20 15:27:57;;;;;;;;;;;21.30;56.40;;;;;;4794699;55;20076;-35
2023/03/20 15:32:58;;;;;;;;;;;21.20;56.30;;;;;;4786794;55;20116;-33
2023/03/20 15:38:03;;;;;;;;;;;21.20;56.30;;;;;;4835092;55;20311;-36
2023/03/20 15:43:21;;;;;;;;;;;21.20;56.30;;;;;;4843568;55;20287;-35
2023/03/20 15:48:22;;;;;;;;;;;21.20;56.20;;;;;;4911659;55;20070;-34
2023/03/20 15:53:29;;;;;;;;;;;21.20;56.80;;;;;;5137030;54;20342;-32
2023/03/20 15:58:30;;;;;;;;;;;21.10;56.20;;;;;;5078277;55;20290;-35
2023/03/20 16:03:34;;;;;;;;;;;21.10;56.10;;;;;;4751757;58;20303;-34
2023/03/20 16:08:34;;;;;;;;;;;21.10;56.10;;;;;;4943158;55;20379;-34
2023/03/20 16:13:37;;;;;;;;;;;21.10;56.10;;;;;;4764911;55;20096;-34
2023/03/20 16:18:39;;;;;;;;;;;21.10;56.00;;;;;;5048352;55;20064;-35
2023/03/20 16:23:43;;;;;;;;;;;21.00;56.00;;;;;;4753892;55;20060;-38
2023/03/20 16:28:45;;;;;;;;;;;21.00;55.90;;;;;;4778374;55;20096;-34
2023/03/20 16:33:46;;;;;;;;;;;21.00;55.90;;;;;;4829714;55;20068;-34
2023/03/20 16:38:55;;;;;;;;;;;21.00;55.90;;;;;;4751588;55;20064;-35
2023/03/20 16:43:56;;;;;;;;;;;21.00;55.80;;;;;;5148963;55;20192;-35
2023/03/20 16:48:57;;;;;;;;;;;21.00;55.80;;;;;;4887585;55;20108;-35
2023/03/20 16:54:00;;;;;;;;;;;21.00;55.90;;;;;;4929663;55;20064;-35
2023/03/20 16:59:08;;;;;;;;;;;21.00;55.80;;;;;;4884685;55;20290;-36
2023/03/20 17:04:19;;;;;;;;;;;21.00;55.70;;;;;;4782636;55;20137;-35
2023/03/20 17:09:38;;;;;;;;;;;21.00;55.80;;;;;;5237991;55;20323;-36
2023/03/20 17:14:43;;;;;;;;;;;21.00;55.70;;;;;;4803830;55;20069;-33
2023/03/20 17:19:44;;;;;;;;;;;21.00;55.70;;;;;;4848925;55;20350;-34
2023/03/20 17:24:45;;;;;;;;;;;21.00;55.70;;;;;;4793337;55;20199;-35
2023/03/20 17:29:50;;;;;;;;;;;21.00;55.60;;;;;;4774336;55;20160;-34
2023/03/20 17:34:51;;;;;;;;;;;20.90;55.60;;;;;;4782176;55;20113;-36
2023/03/20 17:39:53;;;;;;;;;;;20.90;55.60;;;;;;4750646;58;20118;-34
2023/03/20 17:44:54;;;;;;;;;;;20.90;55.50;;;;;;4755651;55;20298;-33
2023/03/20 17:49:54;;;;;;;;;;;20.90;55.50;;;;;;4750169;55;20108;-35
2023/03/20 17:54:55;;;;;;;;;;;20.90;55.50;;;;;;4883019;55;20118;-35
2023/03/20 17:59:56;;;;;;;;;;;20.90;55.40;;;;;;4820036;55;20104;-34
2023/03/20 18:04:56;;;;;;;;;;;20.90;55.50;;;;;;4751680;55;20057;-34
2023/03/20 18:09:57;;;;;;;;;;;20.90;55.40;;;;;;4903019;55;20126;-34
2023/03/20 18:14:58;;;;;;;;;;;21.00;55.50;;;;;;4751629;56;20068;-34
2023/03/20 18:19:58;;;;;;;;;;;20.90;55.40;;;;;;4943999;55;20072;-34
2023/03/20 18:24:59;;;;;;;;;;;20.90;55.30;;;;;;4765498;55;20068;-34
2023/03/20 18:30:00;;;;;;;;;;;20.90;55.40;;;;;;4752150;55;20052;-34
2023/03/20 18:35:00;;;;;;;;;;;20.90;55.30;;;;;;4751490;56;20112;-34
2023/03/20 18:40:02;;;;;;;;;;;20.90;55.20;;;;;;4818130;55;20291;-33
2023/03/20 18:45:03;;;;;;;;;;;20.90;55.20;;;;;;4844424;55;20122;-34
2023/03/20 18:50:05;;;;;;;;;;;20.90;55.90;;;;;;5086820;55;20291;-33
2023/03/20 18:55:06;;;;;;;;;;;20.90;55.20;;;;;;4776801;55;20279;-35
2023/03/20 19:00:40;;;;;;;;;;;20.90;55.20;;;;;;4822760;55;20116;-35
2023/03/20 19:05:41;;;;;;;;;;;20.90;55.20;;;;;;4796339;55;20295;-34
2023/03/20 19:10:42;;;;;;;;;;;20.90;55.10;;;;;;4752355;55;20064;-34
2023/03/20 19:15:44;;;;;;;;;;;20.90;55.10;;;;;;4845223;55;20109;-33
2023/03/20 19:20:46;;;;;;;;;;;20.90;55.10;;;;;;4812968;55;20342;-33
2023/03/20 19:25:49;;;;;;;;;;;20.90;55.00;;;;;;5000823;55;20371;-34
2023/03/20 19:30:50;;;;;;;;;;;20.90;55.00;;;;;;4890225;55;20116;-34
2023/03/20 19:35:51;;;;;;;;;;;20.90;55.00;;;;;;4887142;55;20069;-35
2023/03/20 19:40:52;;;;;;;;;;;20.90;55.00;;;;;;4929089;55;20318;-34
2023/03/20 19:45:55;;;;;;;;;;;20.90;55.50;;;;;;4861846;55;20061;-36
2023/03/20 19:50:56;;;;;;;;;;;20.90;54.90;;;;;;4787385;55;20311;-35
2023/03/20 19:55:57;;;;;;;;;;;20.90;54.90;;;;;;4854838;54;20108;-34
2023/03/20 20:00:57;;;;;;;;;;;20.90;55.00;;;;;;4752103;55;20116;-34
2023/03/20 20:06:01;;;;;;;;;;;20.90;54.90;;;;;;4823213;55;20109;-35
2023/03/20 20:11:01;;;;;;;;;;;20.90;54.80;;;;;;4809760;55;20343;-35
2023/03/20 20:16:02;;;;;;;;;;;20.90;54.80;;;;;;4814080;55;20092;-34
2023/03/20 20:21:03;;;;;;;;;;;20.90;54.90;;;;;;4829498;55;20060;-34
2023/03/20 20:26:04;;;;;;;;;;;20.90;54.90;;;;;;4941003;55;20096;-35
2023/03/20 20:31:04;;;;;;;;;;;20.90;54.80;;;;;;4843053;55;20351;-35
2023/03/20 20:36:11;;;;;;;;;;;20.90;54.80;;;;;;4776853;55;20104;-35
2023/03/20 20:41:12;;;;;;;;;;;20.90;54.80;;;;;;4926756;55;20386;-35
2023/03/20 20:46:12;;;;;;;;;;;20.90;54.70;;;;;;4751337;58;20108;-32
2023/03/20 20:51:13;;;;;;;;;;;20.90;54.70;;;;;;4991371;55;20342;-35
2023/03/20 20:56:14;;;;;;;;;;;20.90;54.70;;;;;;5038405;54;20104;-35
2023/03/20 21:01:14;;;;;;;;;;;20.90;54.70;;;;;;4751854;58;20116;-36
2023/03/20 21:06:15;;;;;;;;;;;20.90;54.70;;;;;;4906145;55;20056;-35
2023/03/20 21:11:16;;;;;;;;;;;20.90;54.70;;;;;;4776081;55;20104;-33
2023/03/20 21:16:17;;;;;;;;;;;20.90;54.70;;;;;;4751984;58;20298;-37
2023/03/20 21:21:17;;;;;;;;;;;20.90;54.70;;;;;;4815004;55;20120;-34
2023/03/20 21:26:18;;;;;;;;;;;20.90;54.70;;;;;;4751737;58;20116;-35
2023/03/20 21:31:23;;;;;;;;;;;20.90;54.60;;;;;;4842318;55;20116;-35
2023/03/20 21:36:24;;;;;;;;;;;20.90;54.60;;;;;;5135254;55;20056;-35
2023/03/20 21:41:25;;;;;;;;;;;20.90;54.60;;;;;;4884916;55;20291;-34
2023/03/20 21:46:26;;;;;;;;;;;20.90;54.60;;;;;;4969034;55;20089;-33
2023/03/20 21:51:26;;;;;;;;;;;20.90;54.50;;;;;;4881077;55;20064;-35
2023/03/20 21:56:27;;;;;;;;;;;20.90;54.60;;;;;;4984801;55;20287;-35
2023/03/20 22:01:27;;;;;;;;;;;20.90;54.60;;;;;;4902406;55;20073;-35
2023/03/20 22:06:28;;;;;;;;;;;20.90;54.70;;;;;;4816391;55;20299;-33
2023/03/20 22:11:29;;;;;;;;;;;20.90;54.50;;;;;;4803214;55;20368;-34
2023/03/20 22:16:30;;;;;;;;;;;20.90;54.50;;;;;;5038454;55;20345;-35
2023/03/20 22:21:31;;;;;;;;;;;20.90;54.50;;;;;;4848405;55;20065;-34
2023/03/20 22:26:31;;;;;;;;;;;20.90;54.40;;;;;;5053329;55;20298;-34
2023/03/20 22:31:35;;;;;;;;;;;20.90;54.40;;;;;;4769407;55;20064;-34
2023/03/20 22:36:36;;;;;;;;;;;20.90;54.50;;;;;;4980620;55;20112;-34
2023/03/20 22:41:37;;;;;;;;;;;20.90;54.40;;;;;;5131092;55;20279;-35
2023/03/20 22:46:38;;;;;;;;;;;20.80;54.40;;;;;;4843949;55;20125;-34
2023/03/20 22:51:39;;;;;;;;;;;20.90;54.40;;;;;;4867224;55;20164;-35
2023/03/20 22:56:40;;;;;;;;;;;20.90;54.40;;;;;;4881796;55;20089;-33
2023/03/20 23:01:40;;;;;;;;;;;20.80;54.30;;;;;;4992267;55;20088;-34
2023/03/20 23:06:41;;;;;;;;;;;20.80;54.30;;;;;;4832262;55;20108;-35
2023/03/20 23:11:42;;;;;;;;;;;20.80;54.40;;;;;;4992982;55;20315;-32
2023/03/20 23:16:42;;;;;;;;;;;20.90;54.40;;;;;;5040653;55;20116;-35
2023/03/20 23:21:43;;;;;;;;;;;20.80;54.50;;;;;;4808675;55;20069;-34
2023/03/20 23:26:44;;;;;;;;;;;20.80;54.40;;;;;;5045314;55;20057;-34
2023/03/20 23:31:44;;;;;;;;;;;20.80;54.40;;;;;;4806982;55;20124;-36
2023/03/20 23:36:45;;;;;;;;;;;20.80;54.40;;;;;;4905109;55;20060;-35
2023/03/20 23:41:46;;;;;;;;;;;20.80;54.40;;;;;;4822262;55;20073;-34
2023/03/20 23:46:46;;;;;;;;;;;20.80;54.40;;;;;;4941311;55;20056;-34
2023/03/20 23:51:47;;;;;;;;;;;20.80;54.40;;;;;;4853777;55;20144;-34
2023/03/20 23:56:48;;;;;;;;;;;20.80;54.40;;;;;;5238292;55;20100;-36
